createdAt,value
2023-04-02T00:00:47.670Z,55.39
2023-04-02T00:01:48.705Z,68.17
2023-04-02T00:02:47.698Z,58.59
2023-04-02T00:03:47.785Z,64.64
2023-04-02T00:04:47.629Z,62.81
2023-04-02T00:05:47.597Z,62.09
2023-04-02T00:06:48.622Z,57.36
2023-04-02T00:07:47.642Z,60.33
2023-04-02T00:08:47.590Z,69.13
2023-04-02T00:09:47.606Z,56.23
2023-04-02T00:10:47.611Z,61.08
2023-04-02T00:11:47.589Z,57.48
2023-04-02T00:12:47.576Z,64.29
2023-04-02T00:13:47.557Z,62.40
2023-04-02T00:14:47.559Z,62.26
2023-04-02T00:15:47.581Z,55.40
2023-04-02T00:16:47.674Z,71.30
2023-04-02T00:17:47.570Z,61.33
2023-04-02T00:18:47.592Z,63.44
2023-04-02T00:19:47.533Z,57.02
2023-04-02T00:20:47.535Z,65.24
2023-04-02T00:21:47.528Z,57.10
2023-04-02T00:22:47.549Z,70.40
2023-04-02T00:23:47.505Z,65.66
2023-04-02T00:24:47.489Z,61.01
2023-04-02T00:25:47.483Z,64.44
2023-04-02T00:26:47.471Z,69.98
2023-04-02T00:27:47.499Z,60.34
2023-04-02T00:28:47.474Z,60.39
2023-04-02T00:29:47.448Z,57.13
2023-04-02T00:30:47.447Z,55.86
2023-04-02T00:31:47.509Z,65.15
2023-04-02T00:32:47.456Z,61.53
2023-04-02T00:33:47.439Z,60.83
2023-04-02T00:34:47.434Z,65.12
2023-04-02T00:35:47.422Z,63.70
2023-04-02T00:36:47.463Z,63.93
2023-04-02T00:37:47.410Z,55.37
2023-04-02T00:38:48.719Z,62.73
2023-04-02T00:39:52.448Z,65.70
2023-04-02T00:40:47.404Z,56.37
2023-04-02T00:41:47.387Z,66.31
2023-04-02T00:42:47.409Z,56.34
2023-04-02T00:43:47.387Z,61.01
2023-04-02T00:44:47.361Z,60.30
2023-04-02T00:45:47.387Z,57.87
2023-04-02T00:46:47.513Z,55.37
2023-04-02T00:47:47.372Z,55.19
2023-04-02T00:48:47.344Z,55.67
2023-04-02T00:49:47.327Z,55.25
2023-04-02T00:50:47.390Z,64.00
2023-04-02T00:51:47.324Z,66.45
2023-04-02T00:52:47.312Z,62.58
2023-04-02T00:53:47.304Z,63.30
2023-04-02T00:54:47.292Z,56.32
2023-04-02T00:55:47.317Z,66.50
2023-04-02T00:56:47.382Z,69.45
2023-04-02T00:57:47.289Z,56.98
2023-04-02T00:58:47.261Z,64.69
2023-04-02T00:59:47.261Z,60.02
2023-04-02T01:00:47.281Z,55.52
2023-04-02T01:01:47.305Z,62.17
2023-04-02T01:02:47.392Z,64.86
2023-04-02T01:03:47.253Z,56.52
2023-04-02T01:04:47.230Z,65.91
2023-04-02T01:05:47.246Z,59.87
2023-04-02T01:06:47.242Z,56.91
2023-04-02T01:07:47.218Z,68.21
2023-04-02T01:08:47.193Z,61.76
2023-04-02T01:09:47.202Z,59.75
2023-04-02T01:10:47.209Z,65.23
2023-04-02T01:11:47.201Z,55.44
2023-04-02T01:12:47.208Z,55.38
2023-04-02T01:13:47.172Z,55.39
2023-04-02T01:14:48.248Z,64.95
2023-04-02T01:15:47.215Z,65.85
2023-04-02T01:16:47.196Z,58.57
2023-04-02T01:17:47.159Z,66.81
2023-04-02T01:18:47.145Z,57.62
2023-04-02T01:19:47.160Z,62.86
2023-04-02T01:20:47.134Z,58.68
2023-04-02T01:21:47.126Z,63.13
2023-04-02T01:22:47.173Z,55.38
2023-04-02T01:23:47.959Z,55.31
2023-04-02T01:24:48.107Z,61.38
2023-04-02T01:25:47.095Z,55.49
2023-04-02T01:26:47.102Z,63.79
2023-04-02T01:27:47.082Z,63.73
2023-04-02T01:28:47.079Z,59.41
2023-04-02T01:29:47.069Z,55.71
2023-04-02T01:30:48.067Z,67.63
2023-04-02T01:31:47.084Z,55.89
2023-04-02T01:32:47.111Z,60.68
2023-04-02T01:33:47.098Z,55.91
2023-04-02T01:34:47.053Z,57.02
2023-04-02T01:35:47.063Z,61.29
2023-04-02T01:36:47.049Z,60.29
2023-04-02T01:37:47.031Z,61.85
2023-04-02T01:38:47.006Z,61.35
2023-04-02T01:39:47.010Z,60.74
2023-04-02T01:40:46.996Z,64.29
2023-04-02T01:41:47.030Z,56.69
2023-04-02T01:42:46.997Z,65.67
2023-04-02T01:43:46.993Z,63.17
2023-04-02T01:44:46.974Z,66.03
2023-04-02T01:45:46.979Z,68.30
2023-04-02T01:46:47.045Z,62.33
2023-04-02T01:47:46.967Z,56.06
2023-04-02T01:48:46.983Z,63.33
2023-04-02T01:49:46.949Z,56.61
2023-04-02T01:50:46.944Z,61.25
2023-04-02T01:51:46.939Z,66.81
2023-04-02T01:52:46.940Z,66.35
2023-04-02T01:53:46.977Z,66.61
2023-04-02T01:54:46.921Z,62.60
2023-04-02T01:55:46.935Z,69.88
2023-04-02T01:56:46.997Z,56.67
2023-04-02T01:57:46.904Z,60.44
2023-04-02T01:58:46.901Z,65.27
2023-04-02T01:59:46.918Z,58.05
2023-04-02T02:00:46.967Z,70.67
2023-04-02T02:01:46.896Z,68.96
2023-04-02T02:02:46.966Z,58.36
2023-04-02T02:03:46.870Z,55.81
2023-04-02T02:04:46.881Z,63.11
2023-04-02T02:05:46.862Z,73.00
2023-04-02T02:06:46.866Z,61.90
2023-04-02T02:07:46.853Z,58.82
2023-04-02T02:08:46.900Z,65.82
2023-04-02T02:09:46.876Z,63.39
2023-04-02T02:10:46.829Z,55.59
2023-04-02T02:11:46.845Z,55.31
2023-04-02T02:12:46.830Z,64.22
2023-04-02T02:13:46.811Z,55.61
2023-04-02T02:14:46.799Z,60.02
2023-04-02T02:15:46.790Z,56.42
2023-04-02T02:16:46.915Z,59.84
2023-04-02T02:17:46.819Z,60.78
2023-04-02T02:18:46.778Z,59.28
2023-04-02T02:19:47.807Z,65.85
2023-04-02T02:20:46.777Z,65.67
2023-04-02T02:21:46.754Z,60.51
2023-04-02T02:22:46.777Z,62.95
2023-04-02T02:23:46.782Z,72.07
2023-04-02T02:24:47.204Z,59.91
2023-04-02T02:25:46.737Z,63.91
2023-04-02T02:26:46.734Z,59.50
2023-04-02T02:27:46.736Z,61.43
2023-04-02T02:28:46.735Z,63.50
2023-04-02T02:29:46.740Z,64.47
2023-04-02T02:30:46.745Z,66.07
2023-04-02T02:31:46.868Z,59.22
2023-04-02T02:32:46.705Z,64.23
2023-04-02T02:33:46.705Z,56.61
2023-04-02T02:34:46.704Z,65.68
2023-04-02T02:35:46.717Z,64.29
2023-04-02T02:36:46.683Z,64.09
2023-04-02T02:37:46.685Z,62.28
2023-04-02T02:38:46.686Z,55.58
2023-04-02T02:39:46.663Z,61.42
2023-04-02T02:40:46.713Z,61.38
2023-04-02T02:41:46.664Z,62.83
2023-04-02T02:42:46.655Z,57.06
2023-04-02T02:43:47.652Z,68.95
2023-04-02T02:44:46.662Z,61.81
2023-04-02T02:45:46.730Z,65.57
2023-04-02T02:46:46.636Z,62.95
2023-04-02T02:47:46.631Z,62.24
2023-04-02T02:48:46.615Z,67.21
2023-04-02T02:49:46.601Z,71.87
2023-04-02T02:50:46.619Z,63.16
2023-04-02T02:51:46.614Z,64.38
2023-04-02T02:52:47.604Z,64.85
2023-04-02T02:53:46.576Z,66.02
2023-04-02T02:54:46.591Z,63.28
2023-04-02T02:55:46.604Z,64.66
2023-04-02T02:56:46.611Z,58.61
2023-04-02T02:57:46.574Z,62.30
2023-04-02T02:58:46.551Z,55.04
2023-04-02T02:59:46.566Z,66.50
2023-04-02T03:00:46.561Z,66.28
2023-04-02T03:01:46.572Z,58.94
2023-04-02T03:02:46.626Z,62.44
2023-04-02T03:03:46.738Z,55.30
2023-04-02T03:04:46.514Z,61.59
2023-04-02T03:05:46.526Z,67.92
2023-04-02T03:06:46.519Z,63.12
2023-04-02T03:07:46.517Z,61.04
2023-04-02T03:08:46.490Z,65.71
2023-04-02T03:09:46.495Z,55.41
2023-04-02T03:10:46.486Z,60.60
2023-04-02T03:11:46.499Z,59.66
2023-04-02T03:12:46.500Z,55.24
2023-04-02T03:13:46.659Z,60.01
2023-04-02T03:14:46.470Z,72.67
2023-04-02T03:15:46.483Z,55.84
2023-04-02T03:16:46.457Z,65.57
2023-04-02T03:17:46.532Z,63.07
2023-04-02T03:18:46.464Z,64.65
2023-04-02T03:19:46.438Z,59.09
2023-04-02T03:20:46.467Z,66.11
2023-04-02T03:21:46.415Z,66.15
2023-04-02T03:22:46.444Z,57.87
2023-04-02T03:23:46.441Z,67.30
2023-04-02T03:24:46.424Z,61.23
2023-04-02T03:25:46.413Z,68.41
2023-04-02T03:26:46.423Z,65.31
2023-04-02T03:27:46.409Z,62.00
2023-04-02T03:28:46.379Z,62.26
2023-04-02T03:29:46.375Z,63.43
2023-04-02T03:30:46.391Z,69.97
2023-04-02T03:31:46.506Z,62.06
2023-04-02T03:32:46.421Z,66.33
2023-04-02T03:33:46.405Z,65.93
2023-04-02T03:34:46.391Z,72.17
2023-04-02T03:35:49.998Z,61.06
2023-04-02T03:36:50.252Z,66.10
2023-04-02T03:37:49.540Z,64.92
2023-04-02T03:38:47.574Z,64.35
2023-04-02T03:39:49.844Z,67.28
2023-04-02T03:40:50.178Z,60.86
2023-04-02T03:41:50.462Z,55.61
2023-04-02T03:42:49.999Z,65.69
2023-04-02T03:43:50.520Z,60.51
2023-04-02T03:44:48.255Z,65.29
2023-04-02T03:45:52.198Z,73.79
2023-04-02T03:46:48.637Z,68.58
2023-04-02T03:47:50.058Z,68.25
2023-04-02T03:48:48.495Z,67.66
2023-04-02T03:49:48.709Z,74.50
2023-04-02T03:50:52.249Z,63.76
2023-04-02T03:51:48.284Z,64.80
2023-04-02T03:52:49.439Z,67.60
2023-04-02T03:53:51.235Z,69.99
2023-04-02T03:54:53.812Z,63.72
2023-04-02T03:55:50.098Z,63.98
2023-04-02T03:56:50.608Z,67.61
2023-04-02T03:57:47.038Z,60.08
2023-04-02T03:58:48.984Z,63.93
2023-04-02T03:59:50.247Z,67.95
2023-04-02T04:00:48.321Z,65.79
2023-04-02T04:01:48.664Z,66.39
2023-04-02T04:02:51.060Z,63.51
2023-04-02T04:03:48.507Z,74.70
2023-04-02T04:04:51.530Z,67.60
2023-04-02T04:05:47.576Z,68.32
2023-04-02T04:06:50.491Z,67.28
2023-04-02T04:07:47.286Z,71.20
2023-04-02T04:08:49.556Z,69.79
2023-04-02T04:09:48.272Z,68.49
2023-04-02T04:10:50.559Z,68.61
2023-04-02T04:11:47.833Z,71.09
2023-04-02T04:12:48.722Z,68.33
2023-04-02T04:13:47.742Z,57.32
2023-04-02T04:14:48.512Z,64.43
2023-04-02T04:15:48.106Z,66.64
2023-04-02T04:16:48.414Z,63.02
2023-04-02T04:17:48.499Z,60.10
2023-04-02T04:18:47.244Z,68.13
2023-04-02T04:19:47.576Z,60.88
2023-04-02T04:20:48.704Z,65.98
2023-04-02T04:21:50.911Z,70.92
2023-04-02T04:22:49.247Z,67.56
2023-04-02T04:23:49.120Z,70.57
2023-04-02T04:24:47.966Z,67.78
2023-04-02T04:25:48.670Z,71.87
2023-04-02T04:26:50.414Z,65.55
2023-04-02T04:27:48.771Z,69.42
2023-04-02T04:28:48.913Z,61.11
2023-04-02T04:29:49.160Z,71.37
2023-04-02T04:30:48.493Z,62.86
2023-04-02T04:31:47.870Z,70.87
2023-04-02T04:32:47.276Z,70.74
2023-04-02T04:33:50.052Z,68.23
2023-04-02T04:34:46.667Z,68.45
2023-04-02T04:35:49.165Z,61.41
2023-04-02T04:36:54.032Z,71.54
2023-04-02T04:37:47.215Z,68.71
2023-04-02T04:38:57.212Z,63.68
2023-04-02T04:39:48.965Z,69.18
2023-04-02T04:40:48.319Z,63.31
2023-04-02T04:41:46.997Z,68.44
2023-04-02T04:42:51.503Z,69.37
2023-04-02T04:43:48.917Z,72.79
2023-04-02T04:44:47.482Z,68.56
2023-04-02T04:45:47.047Z,68.40
2023-04-02T04:46:47.996Z,70.53
2023-04-02T04:47:47.274Z,75.58
2023-04-02T04:48:48.481Z,68.98
2023-04-02T04:49:48.703Z,74.30
2023-04-02T04:50:49.483Z,63.52
2023-04-02T04:51:48.282Z,69.54
2023-04-02T04:52:46.363Z,67.01
2023-04-02T04:53:47.334Z,58.10
2023-04-02T04:54:49.193Z,57.81
2023-04-02T04:55:47.016Z,62.35
2023-04-02T04:56:48.627Z,69.33
2023-04-02T04:57:48.106Z,70.84
2023-04-02T04:58:47.098Z,63.18
2023-04-02T04:59:51.526Z,69.85
2023-04-02T05:00:46.170Z,65.64
2023-04-02T05:01:48.848Z,63.17
2023-04-02T05:02:49.033Z,69.84
2023-04-02T05:03:48.989Z,68.78
2023-04-02T05:04:53.128Z,57.62
2023-04-02T05:05:48.131Z,68.74
2023-04-02T05:06:48.596Z,69.65
2023-04-02T05:07:48.752Z,69.70
2023-04-02T05:08:48.707Z,67.69
2023-04-02T05:09:48.338Z,69.57
2023-04-02T05:10:46.623Z,65.25
2023-04-02T05:11:49.373Z,67.87
2023-04-02T05:12:48.215Z,73.37
2023-04-02T05:13:48.779Z,62.85
2023-04-02T05:15:05.210Z,74.98
2023-04-02T05:15:47.721Z,62.79
2023-04-02T05:16:46.757Z,72.31
2023-04-02T05:17:46.944Z,64.06
2023-04-02T05:18:47.541Z,66.91
2023-04-02T05:19:48.488Z,65.79
2023-04-02T05:20:48.081Z,73.92
2023-04-02T05:21:49.212Z,62.06
2023-04-02T05:22:47.601Z,66.63
2023-04-02T05:23:48.808Z,69.09
2023-04-02T05:24:48.649Z,65.89
2023-04-02T05:25:48.852Z,69.94
2023-04-02T05:26:48.141Z,69.00
2023-04-02T05:27:47.554Z,70.26
2023-04-02T05:28:46.879Z,68.79
2023-04-02T05:29:48.015Z,68.26
2023-04-02T05:30:49.061Z,71.15
2023-04-02T05:31:47.782Z,71.20
2023-04-02T05:32:46.077Z,67.57
2023-04-02T05:33:47.528Z,66.19
2023-04-02T05:34:47.116Z,69.40
2023-04-02T05:35:47.281Z,72.36
2023-04-02T05:36:48.358Z,69.93
2023-04-02T05:37:48.177Z,73.24
2023-04-02T05:38:46.134Z,70.47
2023-04-02T05:39:47.240Z,64.13
2023-04-02T05:40:49.048Z,66.75
2023-04-02T05:41:45.657Z,72.63
2023-04-02T05:42:45.633Z,67.53
2023-04-02T05:43:45.621Z,71.32
2023-04-02T05:44:45.629Z,72.25
2023-04-02T05:45:45.600Z,68.21
2023-04-02T05:46:45.673Z,69.32
2023-04-02T05:47:45.648Z,71.22
2023-04-02T05:48:45.608Z,68.40
2023-04-02T05:49:45.571Z,70.25
2023-04-02T05:50:45.585Z,72.54
2023-04-02T05:51:45.565Z,70.95
2023-04-02T05:52:45.565Z,68.22
2023-04-02T05:53:45.556Z,72.61
2023-04-02T05:54:46.590Z,70.89
2023-04-02T05:55:45.548Z,71.20
2023-04-02T05:56:45.565Z,70.84
2023-04-02T05:57:54.894Z,70.59
2023-04-02T05:58:47.616Z,74.18
2023-04-02T05:59:45.553Z,69.43
2023-04-02T06:00:45.504Z,69.34
2023-04-02T06:01:45.590Z,70.97
2023-04-02T06:02:45.517Z,73.10
2023-04-02T06:03:45.592Z,71.40
2023-04-02T06:04:45.493Z,70.97
2023-04-02T06:05:45.510Z,72.25
2023-04-02T06:06:45.548Z,67.13
2023-04-02T06:07:45.511Z,69.78
2023-04-02T06:08:45.470Z,69.93
2023-04-02T06:09:45.505Z,72.74
2023-04-02T06:10:45.492Z,72.63
2023-04-02T06:11:45.483Z,69.83
2023-04-02T06:12:45.442Z,73.27
2023-04-02T06:13:45.446Z,76.59
2023-04-02T06:14:45.447Z,70.51
2023-04-02T06:15:47.242Z,71.39
2023-04-02T06:16:45.490Z,67.95
2023-04-02T06:17:45.447Z,63.97
2023-04-02T06:18:45.424Z,73.90
2023-04-02T06:19:45.410Z,70.12
2023-04-02T06:20:45.475Z,73.09
2023-04-02T06:21:45.415Z,73.40
2023-04-02T06:22:45.406Z,72.21
2023-04-02T06:23:45.423Z,75.48
2023-04-02T06:24:45.399Z,68.35
2023-04-02T06:25:45.529Z,70.11
2023-04-02T06:26:45.388Z,68.26
2023-04-02T06:27:45.366Z,69.18
2023-04-02T06:28:45.363Z,74.06
2023-04-02T06:29:45.428Z,64.99
2023-04-02T06:30:45.368Z,71.61
2023-04-02T06:31:45.675Z,73.65
2023-04-02T06:32:45.390Z,70.87
2023-04-02T06:33:45.332Z,70.24
2023-04-02T06:34:45.316Z,74.09
2023-04-02T06:35:45.339Z,72.82
2023-04-02T06:36:45.321Z,73.60
2023-04-02T06:37:45.314Z,73.08
2023-04-02T06:38:45.311Z,68.94
2023-04-02T06:39:45.317Z,67.94
2023-04-02T06:40:45.309Z,71.13
2023-04-02T06:41:45.299Z,72.67
2023-04-02T06:42:45.274Z,72.19
2023-04-02T06:43:45.258Z,74.75
2023-04-02T06:44:45.278Z,71.06
2023-04-02T06:45:45.285Z,71.38
2023-04-02T06:46:45.273Z,70.20
2023-04-02T06:47:45.316Z,73.55
2023-04-02T06:48:45.235Z,72.65
2023-04-02T06:49:45.226Z,68.00
2023-04-02T06:50:45.268Z,63.98
2023-04-02T06:51:45.236Z,73.45
2023-04-02T06:52:45.216Z,71.35
2023-04-02T06:53:45.208Z,74.48
2023-04-02T06:54:45.237Z,69.41
2023-04-02T06:55:45.203Z,73.22
2023-04-02T06:56:45.214Z,75.23
2023-04-02T06:57:45.186Z,71.87
2023-04-02T06:58:45.183Z,73.31
2023-04-02T06:59:45.213Z,73.68
2023-04-02T07:00:46.184Z,69.28
2023-04-02T07:01:45.229Z,71.42
2023-04-02T07:02:45.254Z,68.50
2023-04-02T07:03:45.138Z,71.84
2023-04-02T07:04:45.223Z,72.83
2023-04-02T07:05:45.135Z,71.35
2023-04-02T07:06:45.132Z,73.34
2023-04-02T07:07:45.113Z,72.89
2023-04-02T07:08:45.110Z,72.73
2023-04-02T07:09:45.105Z,69.35
2023-04-02T07:10:45.131Z,72.31
2023-04-02T07:11:45.100Z,72.25
2023-04-02T07:12:45.091Z,68.88
2023-04-02T07:13:45.077Z,72.83
2023-04-02T07:14:45.104Z,68.98
2023-04-02T07:15:45.094Z,74.74
2023-04-02T07:16:45.098Z,66.76
2023-04-02T07:17:45.097Z,71.44
2023-04-02T07:18:45.094Z,76.07
2023-04-02T07:19:45.118Z,68.76
2023-04-02T07:20:45.044Z,71.90
2023-04-02T07:21:45.049Z,70.69
2023-04-02T07:22:45.063Z,70.62
2023-04-02T07:23:45.043Z,72.09
2023-04-02T07:24:45.016Z,69.25
2023-04-02T07:25:45.021Z,73.21
2023-04-02T07:26:45.035Z,72.51
2023-04-02T07:27:45.006Z,71.79
2023-04-02T07:28:45.019Z,71.55
2023-04-02T07:29:45.053Z,72.17
2023-04-02T07:30:45.056Z,74.55
2023-04-02T07:31:45.020Z,71.71
2023-04-02T07:32:45.133Z,71.71
2023-04-02T07:33:44.989Z,73.39
2023-04-02T07:34:45.043Z,68.41
2023-04-02T07:35:44.982Z,71.55
2023-04-02T07:36:44.947Z,68.27
2023-04-02T07:37:44.940Z,71.00
2023-04-02T07:38:44.977Z,68.62
2023-04-02T07:39:44.995Z,75.21
2023-04-02T07:40:44.918Z,68.54
2023-04-02T07:41:44.979Z,76.04
2023-04-02T07:42:44.973Z,71.83
2023-04-02T07:43:44.993Z,74.40
2023-04-02T07:44:44.969Z,75.41
2023-04-02T07:45:44.900Z,73.55
2023-04-02T07:46:44.942Z,68.14
2023-04-02T07:47:44.966Z,70.68
2023-04-02T07:48:44.926Z,69.94
2023-04-02T07:49:44.936Z,74.10
2023-04-02T07:50:44.915Z,72.28
2023-04-02T07:51:44.927Z,73.91
2023-04-02T07:52:44.883Z,75.99
2023-04-02T07:53:44.910Z,72.98
2023-04-02T07:54:44.848Z,71.10
2023-04-02T07:55:44.851Z,72.54
2023-04-02T07:56:44.870Z,72.76
2023-04-02T07:57:46.805Z,73.42
2023-04-02T07:58:45.862Z,72.47
2023-04-02T07:59:44.853Z,73.36
2023-04-02T08:00:44.840Z,71.40
2023-04-02T08:01:44.920Z,72.09
2023-04-02T08:02:44.885Z,65.23
2023-04-02T08:03:44.895Z,68.51
2023-04-02T08:04:44.848Z,72.98
2023-04-02T08:05:44.832Z,73.90
2023-04-02T08:06:44.804Z,70.84
2023-04-02T08:07:44.787Z,66.93
2023-04-02T08:08:44.801Z,72.94
2023-04-02T08:09:44.776Z,70.70
2023-04-02T08:10:44.732Z,71.87
2023-04-02T08:11:44.766Z,73.25
2023-04-02T08:12:44.763Z,72.18
2023-04-02T08:13:44.743Z,71.15
2023-04-02T08:14:44.715Z,71.96
2023-04-02T08:15:44.760Z,74.68
2023-04-02T08:16:44.743Z,73.01
2023-04-02T08:17:44.760Z,72.59
2023-04-02T08:18:44.711Z,72.11
2023-04-02T08:19:54.296Z,75.16
2023-04-02T08:20:46.708Z,75.11
2023-04-02T08:21:44.707Z,71.55
2023-04-02T08:22:44.754Z,70.70
2023-04-02T08:23:45.613Z,73.12
2023-04-02T08:24:44.673Z,70.62
2023-04-02T08:25:44.674Z,71.74
2023-04-02T08:26:45.528Z,71.82
2023-04-02T08:27:44.684Z,73.45
2023-04-02T08:28:44.662Z,74.24
2023-04-02T08:29:44.694Z,71.94
2023-04-02T08:30:44.697Z,67.21
2023-04-02T08:31:44.613Z,71.46
2023-04-02T08:32:44.684Z,74.60
2023-04-02T08:33:44.679Z,66.12
2023-04-02T08:34:44.696Z,72.44
2023-04-02T08:35:44.638Z,72.36
2023-04-02T08:36:44.637Z,70.75
2023-04-02T08:37:44.601Z,75.14
2023-04-02T08:38:44.626Z,71.56
2023-04-02T08:39:44.629Z,74.10
2023-04-02T08:40:44.597Z,74.09
2023-04-02T08:41:44.551Z,73.24
2023-04-02T08:42:44.597Z,67.11
2023-04-02T08:43:44.594Z,71.79
2023-04-02T08:44:44.578Z,71.94
2023-04-02T08:45:44.575Z,73.33
2023-04-02T08:46:44.557Z,73.19
2023-04-02T08:47:44.583Z,72.22
2023-04-02T08:48:44.504Z,70.89
2023-04-02T08:49:44.496Z,73.08
2023-04-02T08:50:44.554Z,72.66
2023-04-02T08:51:44.509Z,70.30
2023-04-02T08:52:44.506Z,72.03
2023-04-02T08:53:45.068Z,74.25
2023-04-02T08:54:44.534Z,76.16
2023-04-02T08:55:44.515Z,70.19
2023-04-02T08:56:44.477Z,70.44
2023-04-02T08:57:44.495Z,71.11
2023-04-02T08:58:44.477Z,70.63
2023-04-02T08:59:45.477Z,69.96
2023-04-02T09:00:44.461Z,72.18
2023-04-02T09:01:44.503Z,71.20
2023-04-02T09:02:44.486Z,73.70
2023-04-02T09:03:44.459Z,71.73
2023-04-02T09:04:44.466Z,73.30
2023-04-02T09:05:44.421Z,73.17
2023-04-02T09:06:44.415Z,71.40
2023-04-02T09:07:45.133Z,72.34
2023-04-02T09:08:46.353Z,71.54
2023-04-02T09:09:44.484Z,72.41
2023-04-02T09:10:44.378Z,73.92
2023-04-02T09:11:45.157Z,75.26
2023-04-02T09:12:44.382Z,73.44
2023-04-02T09:13:44.450Z,73.26
2023-04-02T09:14:44.391Z,74.49
2023-04-02T09:15:44.365Z,73.31
2023-04-02T09:16:44.340Z,74.97
2023-04-02T09:17:53.525Z,74.25
2023-04-02T09:18:46.380Z,73.12
2023-04-02T09:19:44.363Z,69.91
2023-04-02T09:20:44.356Z,69.45
2023-04-02T09:21:44.439Z,72.41
2023-04-02T09:22:44.318Z,73.82
2023-04-02T09:23:44.322Z,73.69
2023-04-02T09:24:44.331Z,71.57
2023-04-02T09:25:48.501Z,72.23
2023-04-02T09:26:45.352Z,73.16
2023-04-02T09:27:44.347Z,73.20
2023-04-02T09:28:44.301Z,71.29
2023-04-02T09:29:44.280Z,72.67
2023-04-02T09:30:44.302Z,71.86
2023-04-02T09:31:45.053Z,70.33
2023-04-02T09:32:44.319Z,71.57
2023-04-02T09:33:44.240Z,73.96
2023-04-02T09:36:05.114Z,73.67
2023-04-02T09:36:44.214Z,72.74
2023-04-02T09:37:44.216Z,73.65
2023-04-02T09:38:44.265Z,70.83
2023-04-02T09:39:44.228Z,73.76
2023-04-02T09:40:44.251Z,73.45
2023-04-02T09:41:48.193Z,70.80
2023-04-02T09:42:45.388Z,75.07
2023-04-02T09:43:44.313Z,71.67
2023-04-02T09:44:44.205Z,73.18
2023-04-02T09:45:44.220Z,73.29
2023-04-02T09:46:44.224Z,74.00
2023-04-02T09:47:44.188Z,72.27
2023-04-02T09:48:44.258Z,72.79
2023-04-02T09:49:44.151Z,75.52
2023-04-02T09:50:44.283Z,73.33
2023-04-02T09:51:44.293Z,72.22
2023-04-02T09:52:44.342Z,72.65
2023-04-02T09:53:45.298Z,72.33
2023-04-02T09:54:44.169Z,64.90
2023-04-02T09:55:44.149Z,76.12
2023-04-02T09:56:44.128Z,74.45
2023-04-02T09:57:44.095Z,72.42
2023-04-02T09:58:44.121Z,74.54
2023-04-02T09:59:44.149Z,75.34
2023-04-02T10:00:44.440Z,75.64
2023-04-02T10:01:44.369Z,74.45
2023-04-02T10:02:44.152Z,74.38
2023-04-02T10:03:44.109Z,70.81
2023-04-02T10:04:44.266Z,75.36
2023-04-02T10:05:44.329Z,74.40
2023-04-02T10:06:44.040Z,73.48
2023-04-02T10:07:44.094Z,75.79
2023-04-02T10:08:44.062Z,75.15
2023-04-02T10:09:44.057Z,74.97
2023-04-02T10:10:44.662Z,75.01
2023-04-02T10:11:46.706Z,72.30
2023-04-02T10:12:45.008Z,75.21
2023-04-02T10:13:44.020Z,72.04
2023-04-02T10:14:44.051Z,72.83
2023-04-02T10:15:44.005Z,72.89
2023-04-02T10:16:44.089Z,74.01
2023-04-02T10:17:44.129Z,72.45
2023-04-02T10:18:44.053Z,67.30
2023-04-02T10:19:44.069Z,74.98
2023-04-02T10:20:50.985Z,76.84
2023-04-02T10:21:46.016Z,73.47
2023-04-02T10:22:43.986Z,73.51
2023-04-02T10:23:43.988Z,76.32
2023-04-02T10:24:44.033Z,75.46
2023-04-02T10:25:44.036Z,72.71
2023-04-02T10:26:43.971Z,75.02
2023-04-02T10:27:43.937Z,75.53
2023-04-02T10:28:43.964Z,74.59
2023-04-02T10:29:43.918Z,72.80
2023-04-02T10:30:44.071Z,70.87
2023-04-02T10:31:43.919Z,73.89
2023-04-02T10:32:43.997Z,72.99
2023-04-02T10:33:44.581Z,74.54
2023-04-02T10:34:43.921Z,74.99
2023-04-02T10:35:43.919Z,73.48
2023-04-02T10:36:43.875Z,74.43
2023-04-02T10:37:43.884Z,73.14
2023-04-02T10:38:43.894Z,72.05
2023-04-02T10:39:43.853Z,71.74
2023-04-02T10:40:43.874Z,76.12
2023-04-02T10:41:43.863Z,75.88
2023-04-02T10:42:43.845Z,69.63
2023-04-02T10:43:43.865Z,71.61
2023-04-02T10:44:43.858Z,75.69
2023-04-02T10:45:43.865Z,73.94
2023-04-02T10:46:43.874Z,74.09
2023-04-02T10:47:43.864Z,72.67
2023-04-02T10:48:43.854Z,70.94
2023-04-02T10:49:43.866Z,75.81
2023-04-02T10:50:44.747Z,75.03
2023-04-02T10:51:43.829Z,73.54
2023-04-02T10:52:44.931Z,74.84
2023-04-02T10:53:44.152Z,74.76
2023-04-02T10:54:43.887Z,74.56
2023-04-02T10:55:43.838Z,75.03
2023-04-02T10:56:50.603Z,71.35
2023-04-02T10:57:45.767Z,72.68
2023-04-02T10:58:43.756Z,69.07
2023-04-02T10:59:43.786Z,74.11
2023-04-02T11:00:44.620Z,72.91
2023-04-02T11:01:43.823Z,76.02
2023-04-02T11:02:43.760Z,74.17
2023-04-02T11:03:44.713Z,73.21
2023-04-02T11:04:43.735Z,72.77
2023-04-02T11:05:43.799Z,72.79
2023-04-02T11:06:43.695Z,74.04
2023-04-02T11:07:43.703Z,74.99
2023-04-02T11:08:43.703Z,74.50
2023-04-02T11:09:43.756Z,75.01
2023-04-02T11:10:43.721Z,73.48
2023-04-02T11:11:43.657Z,73.63
2023-04-02T11:12:43.707Z,73.50
2023-04-02T11:13:44.642Z,70.46
2023-04-02T11:14:44.583Z,74.94
2023-04-02T11:15:43.674Z,74.48
2023-04-02T11:16:44.758Z,69.78
2023-04-02T11:17:44.654Z,76.25
2023-04-02T11:18:44.496Z,73.60
2023-04-02T11:19:43.653Z,68.41
2023-04-02T11:20:43.830Z,73.56
2023-04-02T11:21:57.407Z,74.64
2023-04-02T11:22:45.587Z,74.84
2023-04-02T11:23:43.591Z,73.26
2023-04-02T11:24:43.591Z,73.15
2023-04-02T11:25:43.640Z,73.42
2023-04-02T11:26:43.590Z,75.05
2023-04-02T11:27:43.616Z,75.24
2023-04-02T11:28:43.564Z,75.38
2023-04-02T11:29:43.568Z,73.23
2023-04-02T11:30:44.588Z,71.84
2023-04-02T11:31:43.646Z,74.94
2023-04-02T11:32:43.609Z,74.69
2023-04-02T11:33:45.607Z,72.80
2023-04-02T11:34:44.564Z,74.49
2023-04-02T11:35:43.576Z,74.72
2023-04-02T11:36:43.565Z,75.28
2023-04-02T11:37:43.528Z,72.90
2023-04-02T11:38:43.505Z,77.07
2023-04-02T11:39:43.514Z,75.08
2023-04-02T11:40:43.509Z,69.39
2023-04-02T11:41:43.557Z,77.37
2023-04-02T11:42:43.545Z,74.45
2023-04-02T11:43:43.551Z,73.87
2023-04-02T11:44:43.522Z,75.42
2023-04-02T11:45:52.368Z,74.10
2023-04-02T11:46:45.620Z,74.06
2023-04-02T11:47:43.531Z,74.56
2023-04-02T11:48:43.486Z,70.77
2023-04-02T11:49:43.450Z,73.19
2023-04-02T11:50:43.503Z,73.41
2023-04-02T11:51:43.438Z,74.21
2023-04-02T11:52:43.574Z,73.60
2023-04-02T11:53:43.454Z,75.13
2023-04-02T11:54:43.425Z,72.99
2023-04-02T11:55:43.448Z,74.51
2023-04-02T11:56:43.405Z,73.28
2023-04-02T11:57:43.428Z,75.12
2023-04-02T11:58:43.421Z,74.72
2023-04-02T11:59:44.380Z,75.83
2023-04-02T12:00:43.408Z,74.23
2023-04-02T12:01:43.449Z,70.45
2023-04-02T12:02:43.556Z,76.09
2023-04-02T12:03:43.384Z,74.84
2023-04-02T12:04:43.425Z,75.69
2023-04-02T12:05:44.077Z,73.20
2023-04-02T12:06:43.377Z,74.55
2023-04-02T12:07:43.350Z,73.42
2023-04-02T12:08:54.693Z,73.43
2023-04-02T12:09:45.315Z,75.61
2023-04-02T12:10:43.599Z,72.75
2023-04-02T12:11:43.347Z,73.90
2023-04-02T12:12:43.335Z,73.31
2023-04-02T12:13:43.314Z,72.97
2023-04-02T12:14:43.335Z,72.26
2023-04-02T12:15:43.300Z,75.50
2023-04-02T12:16:43.383Z,76.43
2023-04-02T12:17:43.321Z,72.26
2023-04-02T12:18:43.273Z,72.75
2023-04-02T12:19:43.305Z,73.87
2023-04-02T12:20:43.292Z,72.82
2023-04-02T12:21:43.290Z,76.04
2023-04-02T12:22:43.314Z,74.85
2023-04-02T12:23:50.389Z,74.07
2023-04-02T12:24:43.274Z,73.15
2023-04-02T12:25:43.251Z,72.95
2023-04-02T12:26:43.218Z,74.61
2023-04-02T12:27:43.237Z,73.18
2023-04-02T12:28:43.225Z,75.01
2023-04-02T12:29:44.080Z,73.14
2023-04-02T12:30:43.237Z,74.05
2023-04-02T12:31:43.177Z,72.62
2023-04-02T12:32:43.615Z,72.66
2023-04-02T12:33:43.193Z,75.20
2023-04-02T12:34:43.225Z,67.40
2023-04-02T12:35:43.259Z,74.40
2023-04-02T12:36:43.199Z,71.19
2023-04-02T12:37:43.193Z,73.91
2023-04-02T12:38:43.151Z,73.86
2023-04-02T12:39:43.159Z,71.30
2023-04-02T12:40:43.129Z,74.70
2023-04-02T12:41:43.182Z,73.10
2023-04-02T12:42:43.146Z,75.08
2023-04-02T12:43:43.153Z,75.22
2023-04-02T12:44:43.153Z,74.32
2023-04-02T12:45:43.102Z,74.79
2023-04-02T12:46:43.119Z,74.67
2023-04-02T12:47:43.126Z,74.29
2023-04-02T12:48:43.103Z,74.03
2023-04-02T12:49:43.450Z,73.74
2023-04-02T12:50:43.077Z,74.67
2023-04-02T12:51:43.090Z,71.82
2023-04-02T12:52:43.056Z,71.91
2023-04-02T12:53:43.083Z,71.41